createdAt,value
2018-05-31T00:01:23.376Z,19.50
2018-05-31T00:03:51.641Z,19.50
2018-05-31T00:06:22.372Z,19.40
2018-05-31T00:08:51.403Z,19.30
2018-05-31T00:11:19.644Z,19.30
2018-05-31T00:13:47.901Z,19.40
2018-05-31T00:16:16.921Z,19.30
2018-05-31T00:18:45.180Z,19.30
2018-05-31T00:21:14.203Z,19.20
2018-05-31T00:23:42.472Z,19.10
2018-05-31T00:26:10.751Z,19.20
2018-05-31T00:28:39.005Z,19.10
2018-05-31T00:31:08.031Z,18.90
2018-05-31T00:33:36.289Z,18.90
2018-05-31T00:36:04.557Z,19.00
2018-05-31T00:38:33.583Z,19.00
2018-05-31T00:41:01.828Z,18.90
2018-05-31T00:43:30.087Z,18.80
2018-05-31T00:45:59.098Z,18.60
2018-05-31T00:48:27.382Z,18.60
2018-05-31T00:50:55.645Z,18.60
2018-05-31T00:53:23.896Z,18.60
2018-05-31T00:56:09.775Z,18.60
2018-05-31T00:58:39.524Z,18.60
2018-05-31T01:01:07.785Z,18.50
2018-05-31T01:03:36.803Z,18.60
2018-05-31T01:06:05.066Z,18.60
2018-05-31T01:08:33.313Z,18.60
2018-05-31T01:11:01.569Z,18.60
2018-05-31T01:13:29.823Z,18.50
2018-05-31T01:15:58.084Z,18.50
2018-05-31T01:18:26.324Z,18.40
2018-05-31T01:20:55.344Z,18.40
2018-05-31T01:23:23.594Z,18.40
2018-05-31T01:25:52.625Z,18.40
2018-05-31T01:28:20.873Z,18.40
2018-05-31T01:30:49.897Z,18.40
2018-05-31T01:33:18.145Z,18.40
2018-05-31T01:35:47.184Z,18.30
2018-05-31T01:38:31.357Z,18.30
2018-05-31T01:41:00.386Z,18.20
2018-05-31T01:43:28.637Z,18.20
2018-05-31T01:45:56.888Z,18.30
2018-05-31T01:48:25.144Z,18.30
2018-05-31T01:50:54.440Z,18.30
2018-05-31T01:53:22.695Z,18.20
2018-05-31T01:55:50.950Z,18.20
2018-05-31T01:58:19.961Z,18.20
2018-05-31T02:00:48.227Z,18.20
2018-05-31T02:03:17.242Z,18.20
2018-05-31T02:05:45.495Z,18.20
2018-05-31T02:08:14.520Z,18.30
2018-05-31T02:10:42.780Z,18.20
2018-05-31T02:13:11.036Z,18.30
2018-05-31T02:15:40.053Z,18.40
2018-05-31T02:18:08.318Z,18.40
2018-05-31T02:20:36.572Z,18.40
2018-05-31T02:23:05.588Z,18.40
2018-05-31T02:25:33.854Z,18.40
2018-05-31T02:28:02.881Z,18.30
2018-05-31T02:30:31.125Z,18.30
2018-05-31T02:32:59.383Z,18.20
2018-05-31T02:35:28.404Z,18.20
2018-05-31T02:37:56.665Z,18.20
2018-05-31T02:40:25.677Z,18.10
2018-05-31T02:42:53.938Z,18.10
2018-05-31T02:45:22.198Z,18.10
2018-05-31T02:47:51.233Z,18.10
2018-05-31T02:50:19.494Z,18.10
2018-05-31T02:52:47.737Z,18.20
2018-05-31T02:55:16.791Z,17.90
2018-05-31T02:57:45.034Z,17.90
2018-05-31T03:00:13.293Z,17.80
2018-05-31T03:02:42.308Z,17.80
2018-05-31T03:05:10.565Z,17.80
2018-05-31T03:07:39.577Z,17.80
2018-05-31T03:10:07.830Z,17.80
2018-05-31T03:12:36.845Z,17.80
2018-05-31T03:15:05.101Z,17.80
2018-05-31T03:17:34.122Z,17.80
2018-05-31T03:20:02.394Z,17.70
2018-05-31T03:22:30.644Z,17.80
2018-05-31T03:24:59.666Z,18.00
2018-05-31T03:27:27.921Z,18.00
2018-05-31T03:29:56.176Z,18.00
2018-05-31T03:32:25.198Z,18.10
2018-05-31T03:34:53.465Z,18.10
2018-05-31T03:37:21.720Z,18.20
2018-05-31T03:39:50.755Z,18.20
2018-05-31T03:42:19.006Z,18.20
2018-05-31T03:44:48.022Z,18.10
2018-05-31T03:47:16.287Z,18.10
2018-05-31T03:49:44.537Z,18.10
2018-05-31T03:52:13.569Z,18.10
2018-05-31T03:54:41.821Z,18.10
2018-05-31T03:57:10.841Z,18.00
2018-05-31T03:59:39.089Z,18.00
2018-05-31T04:02:08.113Z,18.10
2018-05-31T04:04:36.364Z,18.10
2018-05-31T04:07:04.624Z,18.10
2018-05-31T04:09:33.646Z,18.00
2018-05-31T04:12:01.905Z,18.00
2018-05-31T04:14:30.166Z,18.10
2018-05-31T04:17:00.843Z,18.30
2018-05-31T04:19:29.095Z,18.30
2018-05-31T04:21:57.350Z,18.40
2018-05-31T04:24:26.374Z,18.50
2018-05-31T04:26:54.629Z,18.50
2018-05-31T04:29:23.695Z,18.50
2018-05-31T04:31:51.957Z,18.50
2018-05-31T04:34:20.214Z,18.30
2018-05-31T04:36:48.478Z,18.30
2018-05-31T04:39:16.725Z,18.10
2018-05-31T04:41:45.751Z,18.30
2018-05-31T04:44:13.996Z,18.30
2018-05-31T04:46:42.272Z,18.40
2018-05-31T04:49:11.290Z,18.60
2018-05-31T04:51:39.542Z,18.60
2018-05-31T04:54:07.803Z,18.70
2018-05-31T04:56:36.824Z,18.80
2018-05-31T04:59:05.080Z,18.80
2018-05-31T05:01:34.101Z,19.10
2018-05-31T05:04:02.616Z,19.10
2018-05-31T05:06:30.864Z,19.10
2018-05-31T05:08:59.132Z,19.30
2018-05-31T05:11:27.383Z,19.30
2018-05-31T05:13:56.949Z,19.40
2018-05-31T05:16:25.204Z,19.40
2018-05-31T05:18:53.458Z,19.40
2018-05-31T05:21:21.718Z,19.40
2018-05-31T05:23:49.972Z,19.50
2018-05-31T05:26:18.228Z,19.60
2018-05-31T05:28:46.491Z,19.60
2018-05-31T05:31:14.739Z,19.60
2018-05-31T05:33:43.004Z,19.60
2018-05-31T05:36:11.250Z,19.60
2018-05-31T05:38:39.508Z,19.60
2018-05-31T05:41:07.757Z,19.50
2018-05-31T05:43:36.067Z,19.50
2018-05-31T05:46:04.278Z,19.60
2018-05-31T05:48:32.526Z,19.80
2018-05-31T05:51:00.834Z,19.90
2018-05-31T05:53:29.086Z,19.90
2018-05-31T05:55:58.105Z,19.90
2018-05-31T05:58:26.355Z,19.90
2018-05-31T06:00:55.374Z,20.10
2018-05-31T06:03:23.623Z,20.00
2018-05-31T06:05:52.646Z,20.10
2018-05-31T06:08:20.944Z,20.10
2018-05-31T06:10:49.922Z,19.90
2018-05-31T06:13:18.179Z,19.90
2018-05-31T06:15:46.445Z,19.80
2018-05-31T06:18:15.461Z,19.90
2018-05-31T06:20:43.781Z,19.80
2018-05-31T06:23:12.028Z,19.90
2018-05-31T06:25:40.282Z,19.90
2018-05-31T06:28:08.536Z,19.90
2018-05-31T06:30:37.558Z,20.00
2018-05-31T06:33:05.806Z,20.00
2018-05-31T06:35:34.874Z,20.30
2018-05-31T06:38:03.123Z,20.30
2018-05-31T06:40:31.378Z,20.40
2018-05-31T06:42:59.679Z,20.60
2018-05-31T06:45:28.657Z,20.90
2018-05-31T06:47:56.914Z,20.90
2018-05-31T06:50:25.187Z,21.10
2018-05-31T06:52:53.437Z,21.20
2018-05-31T06:55:22.905Z,21.30
2018-05-31T06:57:51.153Z,21.20
2018-05-31T07:00:19.413Z,21.20
2018-05-31T07:02:48.429Z,21.00
2018-05-31T07:05:16.681Z,21.00
2018-05-31T07:07:44.937Z,21.00
2018-05-31T07:10:14.600Z,21.20
2018-05-31T07:12:42.849Z,21.20
2018-05-31T07:15:11.094Z,21.20
2018-05-31T07:17:40.122Z,21.40
2018-05-31T07:20:08.365Z,21.40
2018-05-31T07:22:37.395Z,21.50
2018-05-31T07:25:05.643Z,21.50
2018-05-31T07:27:34.663Z,21.70
2018-05-31T07:30:02.917Z,21.70
2018-05-31T07:32:31.933Z,21.90
2018-05-31T07:35:00.179Z,21.90
2018-05-31T07:37:29.202Z,21.90
2018-05-31T07:39:57.441Z,21.90
2018-05-31T07:42:26.467Z,22.20
2018-05-31T07:44:54.716Z,22.20
2018-05-31T07:47:23.750Z,22.50
2018-05-31T07:49:52.001Z,22.40
2018-05-31T07:52:20.252Z,22.20
2018-05-31T07:54:49.282Z,22.20
2018-05-31T07:57:17.539Z,22.10
2018-05-31T07:59:45.801Z,22.30
2018-05-31T08:02:15.633Z,22.90
2018-05-31T08:04:43.896Z,22.80
2018-05-31T08:07:12.913Z,22.80
2018-05-31T08:09:41.170Z,22.80
2018-05-31T08:12:10.189Z,23.00
2018-05-31T08:14:40.297Z,23.00
2018-05-31T08:17:08.546Z,23.20
2018-05-31T08:19:37.575Z,23.10
2018-05-31T08:22:06.065Z,23.10
2018-05-31T08:24:34.322Z,23.10
2018-05-31T08:27:02.565Z,23.20
2018-05-31T08:29:30.825Z,23.20
2018-05-31T08:31:59.080Z,23.20
2018-05-31T08:34:27.340Z,23.40
2018-05-31T08:36:55.588Z,23.50
2018-05-31T08:39:24.612Z,23.80
2018-05-31T08:41:52.860Z,23.70
2018-05-31T08:44:21.133Z,24.00
2018-05-31T08:46:50.145Z,24.20
2018-05-31T08:49:18.392Z,24.20
2018-05-31T08:51:47.417Z,24.30
2018-05-31T08:54:15.668Z,24.20
2018-05-31T08:56:44.688Z,24.30
2018-05-31T08:59:12.942Z,24.30
2018-05-31T09:01:41.965Z,24.50
2018-05-31T09:04:10.212Z,24.50
2018-05-31T09:06:39.243Z,24.50
2018-05-31T09:09:07.496Z,24.50
2018-05-31T09:11:35.741Z,24.60
2018-05-31T09:14:04.757Z,24.90
2018-05-31T09:16:33.031Z,24.90
2018-05-31T09:19:01.279Z,25.30
2018-05-31T09:21:29.537Z,25.40
2018-05-31T09:23:57.789Z,25.50
2018-05-31T09:26:26.051Z,25.50
2018-05-31T09:28:54.302Z,25.60
2018-05-31T09:31:23.327Z,25.30
2018-05-31T09:33:51.579Z,25.30
2018-05-31T09:36:19.849Z,25.20
2018-05-31T09:38:48.109Z,25.50
2018-05-31T09:41:17.126Z,25.40
2018-05-31T09:43:45.383Z,25.40
2018-05-31T09:46:14.397Z,25.80
2018-05-31T09:48:42.669Z,25.80
2018-05-31T09:51:10.918Z,25.90
2018-05-31T09:53:39.169Z,25.70
2018-05-31T09:56:07.421Z,25.70
2018-05-31T09:58:35.678Z,25.90
2018-05-31T10:01:03.921Z,25.90
2018-05-31T10:03:32.944Z,25.90
2018-05-31T10:06:01.184Z,25.90
2018-05-31T10:08:29.437Z,25.80
2018-05-31T10:10:57.689Z,25.90
2018-05-31T10:13:25.945Z,26.30
2018-05-31T10:15:54.193Z,26.70
2018-05-31T10:18:23.225Z,27.00
2018-05-31T10:20:51.468Z,26.90
2018-05-31T10:23:20.497Z,27.50
2018-05-31T10:25:48.745Z,27.50
2018-05-31T10:28:17.761Z,27.50
2018-05-31T10:30:46.005Z,27.50
2018-05-31T10:33:15.032Z,27.50
2018-05-31T10:35:43.276Z,27.50
2018-05-31T10:38:12.311Z,27.40
2018-05-31T10:40:40.558Z,27.40
2018-05-31T10:43:08.815Z,27.40
2018-05-31T10:45:37.838Z,27.70
2018-05-31T10:48:06.089Z,27.70
2018-05-31T10:50:35.112Z,28.30
2018-05-31T10:53:03.370Z,28.20
2018-05-31T10:55:31.624Z,28.40
2018-05-31T10:58:00.644Z,28.20
2018-05-31T11:00:28.904Z,28.10
2018-05-31T11:02:57.927Z,28.00
2018-05-31T11:05:26.181Z,27.90
2018-05-31T11:07:54.440Z,28.20
2018-05-31T11:10:23.457Z,29.00
2018-05-31T11:12:51.701Z,28.90
2018-05-31T11:15:20.727Z,29.50
2018-05-31T11:17:48.985Z,29.40
2018-05-31T11:20:18.006Z,29.70
2018-05-31T11:22:46.267Z,29.70
2018-05-31T11:25:14.510Z,30.40
2018-05-31T11:27:42.769Z,30.10
2018-05-31T11:30:11.013Z,29.60
2018-05-31T11:32:39.265Z,29.60
2018-05-31T11:35:07.516Z,30.30
2018-05-31T11:37:36.535Z,30.40
2018-05-31T11:40:04.778Z,30.40
2018-05-31T11:42:33.037Z,29.90
2018-05-31T11:45:01.285Z,29.60
2018-05-31T11:47:29.538Z,29.80
2018-05-31T11:49:57.780Z,29.20
2018-05-31T11:52:26.032Z,28.50
2018-05-31T11:54:54.282Z,28.90
2018-05-31T11:57:22.537Z,29.60
2018-05-31T11:59:50.798Z,28.90
2018-05-31T12:02:19.817Z,29.60
2018-05-31T12:04:48.125Z,29.60
2018-05-31T12:07:16.384Z,29.20
2018-05-31T12:09:44.632Z,29.00
2018-05-31T12:12:13.135Z,29.30
2018-05-31T12:14:41.377Z,29.70
2018-05-31T12:17:10.395Z,30.00
2018-05-31T12:19:38.659Z,30.00
2018-05-31T12:22:06.913Z,29.20
2018-05-31T12:24:35.939Z,30.00
2018-05-31T12:27:04.181Z,29.90
2018-05-31T12:29:33.206Z,29.70
2018-05-31T12:32:01.448Z,29.60
2018-05-31T12:34:30.469Z,30.80
2018-05-31T12:36:58.716Z,30.80
2018-05-31T12:39:27.737Z,30.80
2018-05-31T12:41:55.984Z,30.80
2018-05-31T12:44:25.017Z,31.00
2018-05-31T12:46:53.260Z,31.00
2018-05-31T12:49:22.297Z,31.10
2018-05-31T12:51:50.544Z,31.10
2018-05-31T12:54:18.797Z,30.30
2018-05-31T12:56:47.812Z,30.80
2018-05-31T12:59:16.823Z,30.90
2018-05-31T13:01:45.078Z,30.80
2018-05-31T13:04:13.329Z,31.60
2018-05-31T13:06:42.358Z,32.10
2018-05-31T13:09:10.605Z,32.00
2018-05-31T13:11:39.630Z,32.00
2018-05-31T13:14:09.123Z,32.00
2018-05-31T13:16:38.137Z,31.50
2018-05-31T13:19:06.385Z,31.40
2018-05-31T13:21:35.440Z,29.50
2018-05-31T13:24:03.681Z,29.50
2018-05-31T13:26:31.937Z,28.80
2018-05-31T13:29:00.184Z,28.80
2018-05-31T13:31:29.210Z,30.40
2018-05-31T13:33:57.452Z,30.40
2018-05-31T13:36:25.705Z,30.60
2018-05-31T13:38:55.467Z,29.50
2018-05-31T13:41:23.743Z,29.60
2018-05-31T13:43:51.996Z,29.10
2018-05-31T13:46:21.006Z,28.50
2018-05-31T13:48:49.260Z,28.50
2018-05-31T13:51:18.293Z,28.40
2018-05-31T13:53:46.541Z,28.30
2018-05-31T13:56:15.558Z,28.00
2018-05-31T13:58:43.817Z,28.00
2018-05-31T14:01:12.076Z,28.00
2018-05-31T14:03:41.109Z,27.60
2018-05-31T14:06:09.366Z,27.60
2018-05-31T14:08:38.339Z,27.70
2018-05-31T14:11:06.680Z,27.80
2018-05-31T14:13:35.925Z,28.00
2018-05-31T14:16:05.542Z,28.30
2018-05-31T14:18:34.668Z,28.30
2018-05-31T14:21:03.041Z,28.60
2018-05-31T14:23:31.385Z,29.50
2018-05-31T14:26:00.601Z,30.30
2018-05-31T14:28:28.985Z,30.30
2018-05-31T14:30:57.312Z,30.50
2018-05-31T14:33:25.569Z,31.00
2018-05-31T14:35:53.950Z,30.80
2018-05-31T14:38:22.297Z,31.20
2018-05-31T14:40:50.580Z,32.00
2018-05-31T14:43:18.925Z,32.00
2018-05-31T14:45:47.972Z,30.60
2018-05-31T14:48:16.359Z,30.60
2018-05-31T14:50:45.417Z,29.80
2018-05-31T14:53:13.664Z,29.80
2018-05-31T14:55:42.703Z,29.70
2018-05-31T14:58:10.945Z,29.70
2018-05-31T15:00:39.198Z,29.80
2018-05-31T15:03:08.222Z,30.60
2018-05-31T15:05:36.473Z,30.60
2018-05-31T15:08:05.490Z,30.20
2018-05-31T15:10:33.746Z,30.20
2018-05-31T15:13:02.754Z,30.30
2018-05-31T15:15:31.005Z,30.30
2018-05-31T15:18:00.020Z,29.90
2018-05-31T15:20:28.273Z,29.90
2018-05-31T15:22:57.295Z,29.10
2018-05-31T15:25:25.544Z,29.10
2018-05-31T15:27:54.564Z,29.00
2018-05-31T15:30:22.844Z,28.90
2018-05-31T15:32:51.097Z,28.30
2018-05-31T15:35:20.108Z,27.70
2018-05-31T15:37:48.364Z,27.70
2018-05-31T15:40:16.616Z,27.60
2018-05-31T15:42:44.871Z,27.40
2018-05-31T15:45:13.123Z,27.30
2018-05-31T15:47:41.378Z,27.30
2018-05-31T15:50:09.621Z,27.20
2018-05-31T15:52:37.875Z,26.90
2018-05-31T15:55:06.767Z,27.00
2018-05-31T15:57:35.029Z,26.80
2018-05-31T16:00:03.273Z,26.80
2018-05-31T16:02:31.533Z,26.70
2018-05-31T16:04:59.782Z,26.50
2018-05-31T16:07:28.037Z,26.20
2018-05-31T16:09:56.285Z,26.00
2018-05-31T16:12:24.541Z,25.90
2018-05-31T16:14:52.789Z,25.90
2018-05-31T16:17:21.061Z,25.80
2018-05-31T16:19:49.310Z,25.80
2018-05-31T16:22:17.558Z,25.70
2018-05-31T16:24:45.812Z,25.60
2018-05-31T16:27:14.076Z,25.30
2018-05-31T16:29:43.106Z,25.10
2018-05-31T16:32:11.360Z,25.00
2018-05-31T16:34:39.642Z,25.00
2018-05-31T16:37:07.888Z,24.80
2018-05-31T16:39:36.922Z,24.60
2018-05-31T16:42:05.174Z,24.50
2018-05-31T16:44:34.202Z,24.60
2018-05-31T16:47:02.453Z,24.50
2018-05-31T16:49:30.709Z,24.50
2018-05-31T16:51:59.733Z,24.40
2018-05-31T16:54:27.993Z,24.40
2018-05-31T16:56:56.245Z,24.30
2018-05-31T16:59:24.519Z,24.30
2018-05-31T17:01:52.778Z,24.20
2018-05-31T17:04:21.030Z,24.20
2018-05-31T17:06:49.286Z,24.20
2018-05-31T17:09:17.541Z,24.20
2018-05-31T17:11:46.565Z,24.30
2018-05-31T17:14:14.818Z,24.30
2018-05-31T17:16:43.078Z,24.40
2018-05-31T17:19:12.107Z,24.40
2018-05-31T17:21:40.354Z,24.40
2018-05-31T17:24:09.382Z,24.50
2018-05-31T17:26:37.636Z,24.50
2018-05-31T17:29:05.892Z,24.40
2018-05-31T17:31:34.928Z,24.20
2018-05-31T17:34:03.182Z,24.20
2018-05-31T17:36:31.452Z,24.10
2018-05-31T17:39:00.462Z,23.90
2018-05-31T17:41:29.880Z,23.90
2018-05-31T17:43:58.128Z,23.80
2018-05-31T17:46:26.403Z,23.80
2018-05-31T17:48:54.653Z,23.70
2018-05-31T17:51:23.670Z,23.60
2018-05-31T17:53:51.941Z,23.60
2018-05-31T17:56:20.193Z,23.60
2018-05-31T17:58:49.218Z,23.60
2018-05-31T18:01:17.479Z,23.60
2018-05-31T18:03:46.498Z,23.40
2018-05-31T18:06:14.741Z,23.30
2018-05-31T18:08:43.773Z,23.00
2018-05-31T18:11:12.025Z,23.00
2018-05-31T18:13:40.294Z,22.90
2018-05-31T18:16:08.549Z,22.80
2018-05-31T18:18:36.813Z,22.90
2018-05-31T18:21:05.064Z,22.90
2018-05-31T18:23:33.329Z,22.90
2018-05-31T18:26:01.574Z,22.90
2018-05-31T18:28:29.846Z,22.90
2018-05-31T18:30:58.862Z,22.70
2018-05-31T18:33:27.124Z,22.60
2018-05-31T18:35:55.373Z,22.60
2018-05-31T18:38:23.628Z,22.60
2018-05-31T18:40:51.885Z,22.60
2018-05-31T18:43:20.145Z,22.60
2018-05-31T18:45:48.402Z,22.60
2018-05-31T18:48:16.674Z,22.70
2018-05-31T18:50:44.929Z,22.80
2018-05-31T18:53:13.943Z,23.00
2018-05-31T18:55:42.202Z,23.00
2018-05-31T18:58:11.213Z,22.90
2018-05-31T19:00:39.475Z,22.90
2018-05-31T19:03:08.492Z,23.00
2018-05-31T19:05:36.760Z,22.90
2018-05-31T19:08:05.009Z,22.90
2018-05-31T19:10:33.273Z,22.90
2018-05-31T19:13:06.944Z,22.90
2018-05-31T19:15:35.286Z,22.90
2018-05-31T19:18:03.457Z,22.80
2018-05-31T19:20:31.760Z,22.70
2018-05-31T19:23:00.753Z,22.70
2018-05-31T19:25:29.835Z,22.70
2018-05-31T19:27:58.083Z,22.70
2018-05-31T19:30:32.552Z,22.70
2018-05-31T19:33:00.801Z,22.70
2018-05-31T19:35:34.541Z,22.70
2018-05-31T19:38:02.794Z,22.70
2018-05-31T19:40:31.193Z,22.70
2018-05-31T19:43:05.006Z,22.70
2018-05-31T19:45:33.365Z,22.70
2018-05-31T19:48:01.647Z,22.80
2018-05-31T19:50:29.941Z,22.80
2018-05-31T19:53:03.691Z,22.80
2018-05-31T19:55:32.750Z,22.80
2018-05-31T19:58:12.717Z,22.80
2018-05-31T20:00:47.262Z,22.80
2018-05-31T20:03:21.045Z,22.80
2018-05-31T20:05:50.069Z,22.60
2018-05-31T20:08:18.317Z,22.60
2018-05-31T20:10:47.348Z,22.20
2018-05-31T20:13:15.599Z,22.10
2018-05-31T20:15:44.613Z,22.00
2018-05-31T20:18:12.872Z,22.00
2018-05-31T20:20:41.127Z,22.00
2018-05-31T20:23:09.407Z,22.10
2018-05-31T20:25:37.633Z,22.10
2018-05-31T20:28:05.889Z,22.10
2018-05-31T20:30:34.200Z,22.10
2018-05-31T20:33:03.170Z,21.90
2018-05-31T20:35:31.425Z,21.90
2018-05-31T20:37:59.677Z,21.80
2018-05-31T20:40:28.697Z,21.80
2018-05-31T20:42:56.963Z,21.80
2018-05-31T20:45:25.216Z,21.80
2018-05-31T20:47:54.282Z,21.80
2018-05-31T20:50:22.533Z,21.70
2018-05-31T20:52:50.785Z,21.70
2018-05-31T20:55:19.029Z,21.60
2018-05-31T20:57:47.283Z,21.50
2018-05-31T21:00:15.550Z,21.50
2018-05-31T21:02:43.807Z,21.50
2018-05-31T21:05:12.060Z,21.50
2018-05-31T21:07:40.320Z,21.50
2018-05-31T21:10:09.332Z,21.60
2018-05-31T21:12:38.484Z,21.60
2018-05-31T21:15:06.733Z,21.60
2018-05-31T21:17:34.988Z,21.60
2018-05-31T21:20:03.248Z,21.60
2018-05-31T21:22:32.263Z,21.50
2018-05-31T21:25:00.524Z,21.50
2018-05-31T21:27:28.769Z,21.50
2018-05-31T21:29:57.021Z,21.40
2018-05-31T21:32:25.273Z,21.50
2018-05-31T21:34:53.538Z,21.50
2018-05-31T21:37:21.789Z,21.50
2018-05-31T21:39:50.816Z,21.40
2018-05-31T21:42:19.109Z,21.40
2018-05-31T21:44:48.078Z,21.30
2018-05-31T21:47:16.382Z,21.30
2018-05-31T21:49:45.373Z,21.20
2018-05-31T21:52:13.646Z,21.20
2018-05-31T21:54:42.406Z,21.20
2018-05-31T21:57:10.660Z,21.20
2018-05-31T21:59:39.682Z,21.10
2018-05-31T22:02:07.938Z,21.10
2018-05-31T22:04:36.194Z,21.10
2018-05-31T22:07:04.453Z,21.00
2018-05-31T22:09:32.702Z,21.00
2018-05-31T22:12:00.958Z,21.00
2018-05-31T22:14:29.209Z,20.90
2018-05-31T22:16:58.230Z,20.90
2018-05-31T22:19:26.476Z,20.90
2018-05-31T22:21:55.501Z,20.90
2018-05-31T22:24:23.749Z,20.90
2018-05-31T22:26:52.773Z,20.90
2018-05-31T22:29:21.025Z,20.90
2018-05-31T22:31:49.281Z,20.90
2018-05-31T22:34:18.298Z,20.90
2018-05-31T22:36:46.560Z,20.90
2018-05-31T22:39:15.564Z,20.90
2018-05-31T22:41:43.823Z,20.90
2018-05-31T22:44:12.846Z,20.80
2018-05-31T22:46:41.113Z,20.80
2018-05-31T22:49:09.364Z,20.80
2018-05-31T22:51:37.611Z,20.70
2018-05-31T22:54:05.865Z,20.70
2018-05-31T22:56:34.114Z,20.70
2018-05-31T22:59:02.372Z,20.60
2018-05-31T23:01:31.381Z,20.60
2018-05-31T23:04:00.419Z,20.50
2018-05-31T23:06:28.664Z,20.50
2018-05-31T23:08:56.918Z,20.40
2018-05-31T23:11:25.930Z,20.40
2018-05-31T23:13:58.472Z,20.30
2018-05-31T23:16:26.713Z,20.30
2018-05-31T23:18:56.006Z,20.30
2018-05-31T23:21:24.252Z,20.30
2018-05-31T23:23:53.277Z,20.10
2018-05-31T23:26:21.522Z,20.10
2018-05-31T23:28:50.542Z,20.00
2018-05-31T23:31:18.786Z,20.00
2018-05-31T23:33:47.810Z,20.00
2018-05-31T23:36:16.055Z,19.90
2018-05-31T23:38:45.067Z,20.00
2018-05-31T23:41:13.318Z,20.00
2018-05-31T23:43:42.337Z,20.00
2018-05-31T23:46:10.592Z,19.90
2018-05-31T23:48:41.763Z,20.00
2018-05-31T23:51:10.013Z,20.00
2018-05-31T23:53:39.034Z,19.90
2018-05-31T23:56:07.289Z,19.90
2018-05-31T23:58:35.541Z,19.90
